PWSweather.com
Personal Weather Stations
Station Observations
PICKERING
North Yorkshire, PickeringGB

North YorkshirePickeringGB

Lat: 54.2494, Lon: -0.7725

Elevation: 192

Station Type: Oregon Scientific WMR100

http://www.yorkshirewalker.co.uk/weather/

High Low Average
Temperature 61.3°F16.3°C 44.6°F7.0°C 50.7°F10.4°C
Dew Point 51.8°F11.0°C 39.2°F4.0°C 43.7°F6.5°C
Winds 9.5 mph 15.3 kmh Calm Calm 3.0 mph SSW4.8 kmh SSW
Wind Gusts 12.8 mph20.6 kmh -- 5.0 mph8.0 kmh
Humidity 83% 65% 76%
Pressure 29.50 in999.0 mb 29.41 in995.9 mb -
Precipitation 0.00 in0.0 mm - -
Hour Temp Dew Point Humidity Winds Wind Gusts Pressure Precip Precip Rate Daily Precip Total
12:00 AM 48.9°F9.4°C 42.8°F6.0°C 79% 2.0 mph SSW3.2 kmh SSW 2.0 mph3.2 kmh 29.41 in995.9 mb 0.00 in0.0 mm 0.00 in0.0 mm 0.00 in0.0 mm
12:05 AM 48.7°F9.3°C 42.8°F6.0°C 79% 3.4 mph S5.5 kmh S 3.4 mph5.5 kmh 29.41 in995.9 mb 0.00 in0.0 mm 0.00 in0.0 mm 0.00 in0.0 mm
12:10 AM 48.6°F9.2°C 42.8°F6.0°C 79% 3.4 mph S5.5 kmh S 3.4 mph5.5 kmh 29.41 in995.9 mb 0.00 in0.0 mm 0.00 in0.0 mm 0.00 in0.0 mm
12:15 AM 48.6°F9.2°C 42.8°F6.0°C 79% 3.4 mph S5.5 kmh S 3.4 mph5.5 kmh 29.41 in995.9 mb 0.00 in0.0 mm 0.00 in0.0 mm 0.00 in0.0 mm
12:20 AM 48.6°F9.2°C 42.8°F6.0°C 79% 3.4 mph S5.5 kmh S 3.4 mph5.5 kmh 29.41 in995.9 mb 0.00 in0.0 mm 0.00 in0.0 mm 0.00 in0.0 mm
12:25 AM 48.6°F9.2°C 42.8°F6.0°C 79% 3.4 mph S5.5 kmh S 3.4 mph5.5 kmh 29.41 in995.9 mb 0.00 in0.0 mm 0.00 in0.0 mm 0.00 in0.0 mm
12:30 AM 48.6°F9.2°C 42.8°F6.0°C 79% 3.4 mph S5.5 kmh S 3.4 mph5.5 kmh 29.41 in995.9 mb 0.00 in0.0 mm 0.00 in0.0 mm 0.00 in0.0 mm
12:35 AM 48.6°F9.2°C 42.8°F6.0°C 79% 3.4 mph S5.5 kmh S 3.4 mph5.5 kmh 29.41 in995.9 mb 0.00 in0.0 mm 0.00 in0.0 mm 0.00 in0.0 mm
12:40 AM 48.6°F9.2°C 42.8°F6.0°C 79% 3.4 mph S5.5 kmh S 3.4 mph5.5 kmh 29.41 in995.9 mb 0.00 in0.0 mm 0.00 in0.0 mm 0.00 in0.0 mm
12:45 AM 48.6°F9.2°C 42.8°F6.0°C 80% 1.3 mph SSW2.1 kmh SSW 1.3 mph2.1 kmh 29.41 in995.9 mb 0.00 in0.0 mm 0.00 in0.0 mm 0.00 in0.0 mm
12:50 AM 48.6°F9.2°C 42.8°F6.0°C 80% 2.0 mph S3.2 kmh S 3.4 mph5.5 kmh 29.41 in995.9 mb 0.00 in0.0 mm 0.00 in0.0 mm 0.00 in0.0 mm
12:55 AM 48.6°F9.2°C 42.8°F6.0°C 80% 2.8 mph SSE4.5 kmh SSE 3.4 mph5.5 kmh 29.41 in995.9 mb 0.00 in0.0 mm 0.00 in0.0 mm 0.00 in0.0 mm
01:00 AM 48.7°F9.3°C 42.8°F6.0°C 80% 3.4 mph SSE5.5 kmh SSE 3.4 mph5.5 kmh 29.41 in995.9 mb 0.00 in0.0 mm 0.00 in0.0 mm 0.00 in0.0 mm
01:05 AM 48.9°F9.4°C 42.8°F6.0°C 80% 3.4 mph S5.5 kmh S 3.4 mph5.5 kmh 29.41 in995.9 mb 0.00 in0.0 mm 0.00 in0.0 mm 0.00 in0.0 mm
01:10 AM 48.9°F9.4°C 42.8°F6.0°C 80% 2.6 mph S4.2 kmh S 3.4 mph5.5 kmh 29.41 in995.9 mb 0.00 in0.0 mm 0.00 in0.0 mm 0.00 in0.0 mm
01:15 AM 48.9°F9.4°C 42.8°F6.0°C 80% 1.3 mph SSW2.1 kmh SSW 3.4 mph5.5 kmh 29.41 in995.9 mb 0.00 in0.0 mm 0.00 in0.0 mm 0.00 in0.0 mm
01:20 AM 48.9°F9.4°C 42.8°F6.0°C 80% 0.4 mph SSW0.6 kmh SSW 1.3 mph2.1 kmh 29.41 in995.9 mb 0.00 in0.0 mm 0.00 in0.0 mm 0.00 in0.0 mm
01:25 AM 48.9°F9.4°C 42.8°F6.0°C 80% Calm Calm -- 29.41 in995.9 mb 0.00 in0.0 mm 0.00 in0.0 mm 0.00 in0.0 mm
01:30 AM 48.9°F9.4°C 42.8°F6.0°C 80% Calm Calm -- 29.41 in995.9 mb 0.00 in0.0 mm 0.00 in0.0 mm 0.00 in0.0 mm
01:35 AM 48.6°F9.2°C 42.8°F6.0°C 80% Calm Calm -- 29.41 in995.9 mb 0.00 in0.0 mm 0.00 in0.0 mm 0.00 in0.0 mm
01:40 AM 48.6°F9.2°C 42.8°F6.0°C 80% 2.0 mph SW3.2 kmh SW 2.0 mph3.2 kmh 29.41 in995.9 mb 0.00 in0.0 mm 0.00 in0.0 mm 0.00 in0.0 mm
01:45 AM 48.4°F9.1°C 42.8°F6.0°C 80% 2.0 mph SW3.2 kmh SW 2.0 mph3.2 kmh 29.41 in995.9 mb 0.00 in0.0 mm 0.00 in0.0 mm 0.00 in0.0 mm
01:50 AM 48.2°F9.0°C 42.8°F6.0°C 80% 1.7 mph SW2.7 kmh SW 2.9 mph4.7 kmh 29.41 in995.9 mb 0.00 in0.0 mm 0.00 in0.0 mm 0.00 in0.0 mm
01:55 AM 48.2°F9.0°C 42.8°F6.0°C 80% 1.3 mph WSW2.1 kmh WSW 2.9 mph4.7 kmh 29.41 in995.9 mb 0.00 in0.0 mm 0.00 in0.0 mm 0.00 in0.0 mm
02:00 AM 48.2°F9.0°C 42.8°F6.0°C 80% 1.7 mph SSE2.7 kmh SSE 3.4 mph5.5 kmh 29.41 in995.9 mb 0.00 in0.0 mm 0.00 in0.0 mm 0.00 in0.0 mm
02:05 AM 48.2°F9.0°C 42.8°F6.0°C 80% 2.0 mph S3.2 kmh S 3.4 mph5.5 kmh 29.41 in995.9 mb 0.00 in0.0 mm 0.00 in0.0 mm 0.00 in0.0 mm
02:10 AM 48.4°F9.1°C 42.8°F6.0°C 80% 2.5 mph S4.0 kmh S 4.9 mph7.9 kmh 29.41 in995.9 mb 0.00 in0.0 mm 0.00 in0.0 mm 0.00 in0.0 mm
02:15 AM 48.6°F9.2°C 42.8°F6.0°C 80% 4.1 mph SSW6.6 kmh SSW 4.9 mph7.9 kmh 29.41 in995.9 mb 0.00 in0.0 mm 0.00 in0.0 mm 0.00 in0.0 mm
02:20 AM 48.4°F9.1°C 42.8°F6.0°C 80% 3.1 mph S5.0 kmh S 4.9 mph7.9 kmh 29.41 in995.9 mb 0.00 in0.0 mm 0.00 in0.0 mm 0.00 in0.0 mm
02:25 AM 48.4°F9.1°C 42.8°F6.0°C 81% 1.8 mph SSE2.9 kmh SSE 4.9 mph7.9 kmh 29.41 in995.9 mb 0.00 in0.0 mm 0.00 in0.0 mm 0.00 in0.0 mm
02:30 AM 48.4°F9.1°C 42.8°F6.0°C 81% 1.3 mph SE2.1 kmh SE 2.5 mph4.0 kmh 29.41 in995.9 mb 0.00 in0.0 mm 0.00 in0.0 mm 0.00 in0.0 mm
02:35 AM 48.4°F9.1°C 42.8°F6.0°C 81% 0.9 mph SE1.4 kmh SE 2.5 mph4.0 kmh 29.41 in995.9 mb 0.00 in0.0 mm 0.00 in0.0 mm 0.00 in0.0 mm
02:40 AM 48.0°F8.9°C 42.8°F6.0°C 81% Calm Calm -- 29.41 in995.9 mb 0.00 in0.0 mm 0.00 in0.0 mm 0.00 in0.0 mm
02:45 AM 48.0°F8.9°C 42.8°F6.0°C 81% 0.7 mph SW1.1 kmh SW 3.4 mph5.5 kmh 29.41 in995.9 mb 0.00 in0.0 mm 0.00 in0.0 mm 0.00 in0.0 mm
02:50 AM 48.0°F8.9°C 42.8°F6.0°C 81% 2.0 mph SW3.2 kmh SW 3.4 mph5.5 kmh 29.41 in995.9 mb 0.00 in0.0 mm 0.00 in0.0 mm 0.00 in0.0 mm
02:55 AM 48.2°F9.0°C 42.8°F6.0°C 81% 2.2 mph WSW3.5 kmh WSW 3.4 mph5.5 kmh 29.41 in995.9 mb 0.00 in0.0 mm 0.00 in0.0 mm 0.00 in0.0 mm
03:00 AM 48.2°F9.0°C 42.8°F6.0°C 81% 2.3 mph WSW3.7 kmh WSW 3.6 mph5.8 kmh 29.41 in995.9 mb 0.00 in0.0 mm 0.00 in0.0 mm 0.00 in0.0 mm
03:05 AM 48.2°F9.0°C 42.8°F6.0°C 81% 2.7 mph SW4.3 kmh SW 3.6 mph5.8 kmh 29.41 in995.9 mb 0.00 in0.0 mm 0.00 in0.0 mm 0.00 in0.0 mm
03:10 AM 48.4°F9.1°C 42.8°F6.0°C 81% 2.4 mph SSW3.9 kmh SSW 3.6 mph5.8 kmh 29.41 in995.9 mb 0.00 in0.0 mm 0.00 in0.0 mm 0.00 in0.0 mm
03:15 AM 48.4°F9.1°C 42.8°F6.0°C 81% 1.8 mph SSW2.9 kmh SSW 2.9 mph4.7 kmh 29.41 in995.9 mb 0.00 in0.0 mm 0.00 in0.0 mm 0.00 in0.0 mm
03:20 AM 48.6°F9.2°C 42.8°F6.0°C 81% 1.7 mph SSW2.7 kmh SSW 5.4 mph8.7 kmh 29.41 in995.9 mb 0.00 in0.0 mm 0.00 in0.0 mm 0.00 in0.0 mm
03:25 AM 48.6°F9.2°C 42.8°F6.0°C 81% 2.1 mph SW3.4 kmh SW 5.4 mph8.7 kmh 29.41 in995.9 mb 0.00 in0.0 mm 0.00 in0.0 mm 0.00 in0.0 mm
03:30 AM 48.7°F9.3°C 42.8°F6.0°C 81% 2.6 mph SW4.2 kmh SW 3.1 mph5.0 kmh 29.41 in995.9 mb 0.00 in0.0 mm 0.00 in0.0 mm 0.00 in0.0 mm
03:35 AM 48.7°F9.3°C 42.8°F6.0°C 81% 2.2 mph SW3.5 kmh SW 3.1 mph5.0 kmh 29.41 in995.9 mb 0.00 in0.0 mm 0.00 in0.0 mm 0.00 in0.0 mm
03:40 AM 48.7°F9.3°C 42.8°F6.0°C 81% 1.0 mph WSW1.6 kmh WSW 3.1 mph5.0 kmh 29.41 in995.9 mb 0.00 in0.0 mm 0.00 in0.0 mm 0.00 in0.0 mm
03:45 AM 48.7°F9.3°C 42.8°F6.0°C 81% 2.3 mph SW3.7 kmh SW 6.3 mph10.1 kmh 29.41 in995.9 mb 0.00 in0.0 mm 0.00 in0.0 mm 0.00 in0.0 mm
03:50 AM 48.7°F9.3°C 42.8°F6.0°C 81% 3.5 mph SW5.6 kmh SW 6.3 mph10.1 kmh 29.41 in995.9 mb 0.00 in0.0 mm 0.00 in0.0 mm 0.00 in0.0 mm
03:55 AM 48.7°F9.3°C 42.8°F6.0°C 81% 3.1 mph WSW5.0 kmh WSW 5.4 mph8.7 kmh 29.41 in995.9 mb 0.00 in0.0 mm 0.00 in0.0 mm 0.00 in0.0 mm
04:00 AM 48.7°F9.3°C 42.8°F6.0°C 81% 3.6 mph SW5.8 kmh SW 4.7 mph7.6 kmh 29.41 in995.9 mb 0.00 in0.0 mm 0.00 in0.0 mm 0.00 in0.0 mm
04:05 AM 48.6°F9.2°C 42.8°F6.0°C 81% 3.7 mph SW6.0 kmh SW 4.7 mph7.6 kmh 29.41 in995.9 mb 0.00 in0.0 mm 0.00 in0.0 mm 0.00 in0.0 mm
04:10 AM 48.7°F9.3°C 42.8°F6.0°C 81% 3.9 mph S6.3 kmh S 4.3 mph6.9 kmh 29.41 in995.9 mb 0.00 in0.0 mm 0.00 in0.0 mm 0.00 in0.0 mm
04:15 AM 48.7°F9.3°C 42.8°F6.0°C 81% 4.0 mph S6.4 kmh S 5.8 mph9.3 kmh 29.41 in995.9 mb 0.00 in0.0 mm 0.00 in0.0 mm 0.00 in0.0 mm
04:20 AM 48.7°F9.3°C 42.8°F6.0°C 81% 3.4 mph SSW5.5 kmh SSW 5.8 mph9.3 kmh 29.41 in995.9 mb 0.00 in0.0 mm 0.00 in0.0 mm 0.00 in0.0 mm
04:25 AM 48.7°F9.3°C 42.8°F6.0°C 81% 2.7 mph WSW4.3 kmh WSW 4.0 mph6.4 kmh 29.41 in995.9 mb 0.00 in0.0 mm 0.00 in0.0 mm 0.00 in0.0 mm
04:30 AM 48.7°F9.3°C 42.8°F6.0°C 81% 3.9 mph SSW6.3 kmh SSW 6.5 mph10.5 kmh 29.41 in995.9 mb 0.00 in0.0 mm 0.00 in0.0 mm 0.00 in0.0 mm
04:35 AM 48.7°F9.3°C 42.8°F6.0°C 81% 4.4 mph SSW7.1 kmh SSW 6.5 mph10.5 kmh 29.41 in995.9 mb 0.00 in0.0 mm 0.00 in0.0 mm 0.00 in0.0 mm
04:40 AM 48.7°F9.3°C 42.8°F6.0°C 81% 3.2 mph SW5.1 kmh SW 6.5 mph10.5 kmh 29.41 in995.9 mb 0.00 in0.0 mm 0.00 in0.0 mm 0.00 in0.0 mm
04:45 AM 48.7°F9.3°C 42.8°F6.0°C 81% 2.4 mph SW3.9 kmh SW 4.0 mph6.4 kmh 29.41 in995.9 mb 0.00 in0.0 mm 0.00 in0.0 mm 0.00 in0.0 mm
04:50 AM 48.7°F9.3°C 42.8°F6.0°C 81% 2.8 mph SSW4.5 kmh SSW 4.0 mph6.4 kmh 29.41 in995.9 mb 0.00 in0.0 mm 0.00 in0.0 mm 0.00 in0.0 mm
04:55 AM 48.6°F9.2°C 42.8°F6.0°C 81% 2.9 mph SSW4.7 kmh SSW 4.0 mph6.4 kmh 29.41 in995.9 mb 0.00 in0.0 mm 0.00 in0.0 mm 0.00 in0.0 mm
05:00 AM 48.6°F9.2°C 42.8°F6.0°C 81% 2.3 mph SSW3.7 kmh SSW 4.0 mph6.4 kmh 29.41 in995.9 mb 0.00 in0.0 mm 0.00 in0.0 mm 0.00 in0.0 mm
05:05 AM 48.6°F9.2°C 42.8°F6.0°C 81% 1.9 mph SW3.1 kmh SW 3.6 mph5.8 kmh 29.41 in995.9 mb 0.00 in0.0 mm 0.00 in0.0 mm 0.00 in0.0 mm
05:10 AM 48.6°F9.2°C 42.8°F6.0°C 81% 2.0 mph SW3.2 kmh SW 3.8 mph6.1 kmh 29.41 in995.9 mb 0.00 in0.0 mm 0.00 in0.0 mm 0.00 in0.0 mm
05:15 AM 48.4°F9.1°C 42.8°F6.0°C 81% 2.8 mph SW4.5 kmh SW 3.8 mph6.1 kmh 29.41 in995.9 mb 0.00 in0.0 mm 0.00 in0.0 mm 0.00 in0.0 mm
05:20 AM 48.4°F9.1°C 42.8°F6.0°C 81% 3.0 mph SW4.8 kmh SW 5.8 mph9.3 kmh 29.41 in995.9 mb 0.00 in0.0 mm 0.00 in0.0 mm 0.00 in0.0 mm
05:25 AM 48.4°F9.1°C 42.8°F6.0°C 81% 2.4 mph SW3.9 kmh SW 5.8 mph9.3 kmh 29.41 in995.9 mb 0.00 in0.0 mm 0.00 in0.0 mm 0.00 in0.0 mm
05:30 AM 48.4°F9.1°C 42.8°F6.0°C 81% 2.3 mph SW3.7 kmh SW 2.9 mph4.7 kmh 29.41 in995.9 mb 0.00 in0.0 mm 0.00 in0.0 mm 0.00 in0.0 mm
05:35 AM 48.4°F9.1°C 42.8°F6.0°C 81% 3.4 mph SSW5.5 kmh SSW 5.8 mph9.3 kmh 29.41 in995.9 mb 0.00 in0.0 mm 0.00 in0.0 mm 0.00 in0.0 mm
05:40 AM 48.2°F9.0°C 42.8°F6.0°C 82% 3.6 mph SSW5.8 kmh SSW 5.8 mph9.3 kmh 29.41 in995.9 mb 0.00 in0.0 mm 0.00 in0.0 mm 0.00 in0.0 mm
05:45 AM 48.4°F9.1°C 42.8°F6.0°C 82% 3.6 mph S5.8 kmh S 5.4 mph8.7 kmh 29.41 in995.9 mb 0.00 in0.0 mm 0.00 in0.0 mm 0.00 in0.0 mm
05:50 AM 48.2°F9.0°C 42.8°F6.0°C 82% 2.5 mph S4.0 kmh S 5.4 mph8.7 kmh 29.41 in995.9 mb 0.00 in0.0 mm 0.00 in0.0 mm 0.00 in0.0 mm
05:55 AM 48.2°F9.0°C 42.8°F6.0°C 81% 1.6 mph SE2.6 kmh SE 2.2 mph3.5 kmh 29.41 in995.9 mb 0.00 in0.0 mm 0.00 in0.0 mm 0.00 in0.0 mm
06:00 AM 48.0°F8.9°C 42.8°F6.0°C 82% 1.4 mph SSE2.3 kmh SSE 2.2 mph3.5 kmh 29.41 in995.9 mb 0.00 in0.0 mm 0.00 in0.0 mm 0.00 in0.0 mm
06:05 AM 48.0°F8.9°C 42.8°F6.0°C 82% 1.8 mph SW2.9 kmh SW 3.1 mph5.0 kmh 29.41 in995.9 mb 0.00 in0.0 mm 0.00 in0.0 mm 0.00 in0.0 mm
06:10 AM 48.0°F8.9°C 42.8°F6.0°C 82% 1.8 mph SW2.9 kmh SW 3.1 mph5.0 kmh 29.41 in995.9 mb 0.00 in0.0 mm 0.00 in0.0 mm 0.00 in0.0 mm
06:15 AM 47.8°F8.8°C 42.8°F6.0°C 82% 1.6 mph SW2.6 kmh SW 2.0 mph3.2 kmh 29.41 in995.9 mb 0.00 in0.0 mm 0.00 in0.0 mm 0.00 in0.0 mm
06:20 AM 47.8°F8.8°C 42.8°F6.0°C 82% 0.6 mph SSW1.0 kmh SSW 1.3 mph2.1 kmh 29.41 in995.9 mb 0.00 in0.0 mm 0.00 in0.0 mm 0.00 in0.0 mm
06:25 AM 47.8°F8.8°C 42.8°F6.0°C 82% 0.8 mph SW1.3 kmh SW 2.5 mph4.0 kmh 29.41 in995.9 mb 0.00 in0.0 mm 0.00 in0.0 mm 0.00 in0.0 mm
06:30 AM 47.8°F8.8°C 42.8°F6.0°C 82% 1.5 mph WSW2.4 kmh WSW 2.5 mph4.0 kmh 29.41 in995.9 mb 0.00 in0.0 mm 0.00 in0.0 mm 0.00 in0.0 mm
06:35 AM 47.8°F8.8°C 42.8°F6.0°C 82% 1.9 mph SW3.1 kmh SW 4.3 mph6.9 kmh 29.41 in995.9 mb 0.00 in0.0 mm 0.00 in0.0 mm 0.00 in0.0 mm
06:40 AM 47.8°F8.8°C 42.8°F6.0°C 83% 1.7 mph SW2.7 kmh SW 4.3 mph6.9 kmh 29.41 in995.9 mb 0.00 in0.0 mm 0.00 in0.0 mm 0.00 in0.0 mm
06:45 AM 47.8°F8.8°C 42.8°F6.0°C 83% 1.2 mph SW1.9 kmh SW 2.9 mph4.7 kmh 29.41 in995.9 mb 0.00 in0.0 mm 0.00 in0.0 mm 0.00 in0.0 mm
06:50 AM 47.8°F8.8°C 42.8°F6.0°C 83% 1.0 mph SW1.6 kmh SW 2.9 mph4.7 kmh 29.41 in995.9 mb 0.00 in0.0 mm 0.00 in0.0 mm 0.00 in0.0 mm
06:55 AM 47.8°F8.8°C 42.8°F6.0°C 83% 1.0 mph SSW1.6 kmh SSW 4.0 mph6.4 kmh 29.41 in995.9 mb 0.00 in0.0 mm 0.00 in0.0 mm 0.00 in0.0 mm
07:00 AM 47.8°F8.8°C 42.8°F6.0°C 83% 1.2 mph SW1.9 kmh SW 4.0 mph6.4 kmh 29.41 in995.9 mb 0.00 in0.0 mm 0.00 in0.0 mm 0.00 in0.0 mm
07:05 AM 47.8°F8.8°C 42.8°F6.0°C 83% 1.3 mph SW2.1 kmh SW 2.5 mph4.0 kmh 29.41 in995.9 mb 0.00 in0.0 mm 0.00 in0.0 mm 0.00 in0.0 mm
07:10 AM 48.0°F8.9°C 42.8°F6.0°C 83% 2.0 mph SW3.2 kmh SW 2.5 mph4.0 kmh 29.41 in995.9 mb 0.00 in0.0 mm 0.00 in0.0 mm 0.00 in0.0 mm
07:15 AM 48.2°F9.0°C 42.8°F6.0°C 83% 2.7 mph SW4.3 kmh SW 3.4 mph5.5 kmh 29.41 in995.9 mb 0.00 in0.0 mm 0.00 in0.0 mm 0.00 in0.0 mm
07:20 AM 48.2°F9.0°C 42.8°F6.0°C 82% 3.2 mph SSW5.1 kmh SSW 7.4 mph11.9 kmh 29.41 in995.9 mb 0.00 in0.0 mm 0.00 in0.0 mm 0.00 in0.0 mm
07:25 AM 48.0°F8.9°C 42.8°F6.0°C 82% 3.4 mph SSW5.5 kmh SSW 7.4 mph11.9 kmh 29.41 in995.9 mb 0.00 in0.0 mm 0.00 in0.0 mm 0.00 in0.0 mm
07:30 AM 48.0°F8.9°C 42.8°F6.0°C 82% 3.5 mph SW5.6 kmh SW 7.4 mph11.9 kmh 29.41 in995.9 mb 0.00 in0.0 mm 0.00 in0.0 mm 0.00 in0.0 mm
07:35 AM 48.0°F8.9°C 42.8°F6.0°C 82% 2.3 mph SW3.7 kmh SW 6.5 mph10.5 kmh 29.41 in995.9 mb 0.00 in0.0 mm 0.00 in0.0 mm 0.00 in0.0 mm
07:40 AM 48.2°F9.0°C 42.8°F6.0°C 82% 2.0 mph SW3.2 kmh SW 3.4 mph5.5 kmh 29.41 in995.9 mb 0.00 in0.0 mm 0.00 in0.0 mm 0.00 in0.0 mm
07:45 AM 48.6°F9.2°C 44.6°F7.0°C 82% 2.3 mph SW3.7 kmh SW 3.6 mph5.8 kmh 29.41 in995.9 mb 0.00 in0.0 mm 0.00 in0.0 mm 0.00 in0.0 mm
07:50 AM 48.6°F9.2°C 44.6°F7.0°C 82% 2.4 mph SW3.9 kmh SW 3.6 mph5.8 kmh 29.41 in995.9 mb 0.00 in0.0 mm 0.00 in0.0 mm 0.00 in0.0 mm
07:55 AM 48.6°F9.2°C 44.6°F7.0°C 82% 2.9 mph SW4.7 kmh SW 3.6 mph5.8 kmh 29.41 in995.9 mb 0.00 in0.0 mm 0.00 in0.0 mm 0.00 in0.0 mm
08:00 AM 48.9°F9.4°C 44.6°F7.0°C 82% 2.2 mph SW3.5 kmh SW 2.9 mph4.7 kmh 29.41 in995.9 mb 0.00 in0.0 mm 0.00 in0.0 mm 0.00 in0.0 mm
08:05 AM 49.1°F9.5°C 44.6°F7.0°C 82% 3.8 mph SW6.1 kmh SW 7.8 mph12.6 kmh 29.41 in995.9 mb 0.00 in0.0 mm 0.00 in0.0 mm 0.00 in0.0 mm
08:10 AM 49.5°F9.7°C 44.6°F7.0°C 82% 4.4 mph SW7.1 kmh SW 7.8 mph12.6 kmh 29.41 in995.9 mb 0.00 in0.0 mm 0.00 in0.0 mm 0.00 in0.0 mm
08:15 AM 49.6°F9.8°C 44.6°F7.0°C 82% 3.9 mph SW6.3 kmh SW 6.0 mph9.7 kmh 29.41 in995.9 mb 0.00 in0.0 mm 0.00 in0.0 mm 0.00 in0.0 mm
08:20 AM 49.8°F9.9°C 44.6°F7.0°C 81% 4.7 mph SW7.6 kmh SW 6.5 mph10.5 kmh 29.41 in995.9 mb 0.00 in0.0 mm 0.00 in0.0 mm 0.00 in0.0 mm
08:25 AM 50.0°F10.0°C 44.6°F7.0°C 81% 4.4 mph SW7.1 kmh SW 7.2 mph11.6 kmh 29.41 in995.9 mb 0.00 in0.0 mm 0.00 in0.0 mm 0.00 in0.0 mm
08:30 AM 50.2°F10.1°C 44.6°F7.0°C 81% 4.0 mph SSW6.4 kmh SSW 7.2 mph11.6 kmh 29.41 in995.9 mb 0.00 in0.0 mm 0.00 in0.0 mm 0.00 in0.0 mm
08:35 AM 50.4°F10.2°C 44.6°F7.0°C 81% 4.2 mph S6.8 kmh S 7.2 mph11.6 kmh 29.41 in995.9 mb 0.00 in0.0 mm 0.00 in0.0 mm 0.00 in0.0 mm
08:40 AM 50.7°F10.4°C 44.6°F7.0°C 81% 4.0 mph S6.4 kmh S 7.6 mph12.2 kmh 29.41 in995.9 mb 0.00 in0.0 mm 0.00 in0.0 mm 0.00 in0.0 mm
08:45 AM 51.1°F10.6°C 46.4°F8.0°C 81% 3.8 mph SSW6.1 kmh SSW 7.6 mph12.2 kmh 29.41 in995.9 mb 0.00 in0.0 mm 0.00 in0.0 mm 0.00 in0.0 mm
08:50 AM 51.8°F11.0°C 46.4°F8.0°C 81% 3.3 mph SW5.3 kmh SW 6.5 mph10.5 kmh 29.41 in995.9 mb 0.00 in0.0 mm 0.00 in0.0 mm 0.00 in0.0 mm
08:55 AM 52.7°F11.5°C 48.2°F9.0°C 80% 3.3 mph SW5.3 kmh SW 6.5 mph10.5 kmh 29.41 in995.9 mb 0.00 in0.0 mm 0.00 in0.0 mm 0.00 in0.0 mm
09:00 AM 52.7°F11.5°C 48.2°F9.0°C 80% 4.9 mph SW7.9 kmh SW 11.0 mph17.7 kmh 29.41 in995.9 mb 0.00 in0.0 mm 0.00 in0.0 mm 0.00 in0.0 mm
09:05 AM 52.5°F11.4°C 46.4°F8.0°C 80% 6.5 mph SW10.5 kmh SW 11.0 mph17.7 kmh 29.41 in995.9 mb 0.00 in0.0 mm 0.00 in0.0 mm 0.00 in0.0 mm
09:10 AM 52.5°F11.4°C 46.4°F8.0°C 80% 6.5 mph W10.5 kmh W 8.5 mph13.7 kmh 29.41 in995.9 mb 0.00 in0.0 mm 0.00 in0.0 mm 0.00 in0.0 mm
09:15 AM 52.3°F11.3°C 46.4°F8.0°C 80% 7.3 mph WSW11.7 kmh WSW 8.9 mph14.3 kmh 29.41 in995.9 mb 0.00 in0.0 mm 0.00 in0.0 mm 0.00 in0.0 mm
09:20 AM 52.5°F11.4°C 46.4°F8.0°C 80% 5.5 mph SW8.9 kmh SW 8.9 mph14.3 kmh 29.41 in995.9 mb 0.00 in0.0 mm 0.00 in0.0 mm 0.00 in0.0 mm
09:25 AM 52.7°F11.5°C 48.2°F9.0°C 80% 4.4 mph SW7.1 kmh SW 6.5 mph10.5 kmh 29.41 in995.9 mb 0.00 in0.0 mm 0.00 in0.0 mm 0.00 in0.0 mm
09:30 AM 53.1°F11.7°C 48.2°F9.0°C 80% 5.0 mph SW8.0 kmh SW 6.5 mph10.5 kmh 29.41 in995.9 mb 0.00 in0.0 mm 0.00 in0.0 mm 0.00 in0.0 mm
09:35 AM 53.6°F12.0°C 48.2°F9.0°C 79% 7.1 mph WSW11.4 kmh WSW 10.1 mph16.3 kmh 29.41 in995.9 mb 0.00 in0.0 mm 0.00 in0.0 mm 0.00 in0.0 mm
09:40 AM 53.6°F12.0°C 48.2°F9.0°C 79% 6.7 mph WSW10.8 kmh WSW 10.1 mph16.3 kmh 29.41 in995.9 mb 0.00 in0.0 mm 0.00 in0.0 mm 0.00 in0.0 mm
09:45 AM 53.8°F12.1°C 48.2°F9.0°C 79% 4.9 mph WSW7.9 kmh WSW 5.8 mph9.3 kmh 29.41 in995.9 mb 0.00 in0.0 mm 0.00 in0.0 mm 0.00 in0.0 mm
09:50 AM 53.8°F12.1°C 48.2°F9.0°C 78% 5.8 mph WSW9.3 kmh WSW 5.8 mph9.3 kmh 29.41 in995.9 mb 0.00 in0.0 mm 0.00 in0.0 mm 0.00 in0.0 mm
09:55 AM 53.8°F12.1°C 48.2°F9.0°C 78% 5.8 mph WSW9.3 kmh WSW 5.8 mph9.3 kmh 29.41 in995.9 mb 0.00 in0.0 mm 0.00 in0.0 mm 0.00 in0.0 mm
10:10 AM 55.6°F13.1°C 48.2°F9.0°C 77% Calm Calm -- 29.41 in995.9 mb 0.00 in0.0 mm 0.00 in0.0 mm 0.00 in0.0 mm
10:15 AM 55.4°F13.0°C 48.2°F9.0°C 77% Calm Calm -- 29.41 in995.9 mb 0.00 in0.0 mm 0.00 in0.0 mm 0.00 in0.0 mm
10:20 AM 55.0°F12.8°C 48.2°F9.0°C 76% Calm Calm -- 29.41 in995.9 mb 0.00 in0.0 mm 0.00 in0.0 mm 0.00 in0.0 mm
10:25 AM 55.4°F13.0°C 48.2°F9.0°C 76% Calm Calm -- 29.41 in995.9 mb 0.00 in0.0 mm 0.00 in0.0 mm 0.00 in0.0 mm
10:30 AM 57.4°F14.1°C 50.0°F10.0°C 76% Calm Calm -- 29.41 in995.9 mb 0.00 in0.0 mm 0.00 in0.0 mm 0.00 in0.0 mm
10:35 AM 58.8°F14.9°C 51.8°F11.0°C 75% Calm Calm -- 29.41 in995.9 mb 0.00 in0.0 mm 0.00 in0.0 mm 0.00 in0.0 mm
10:40 AM 59.7°F15.4°C 51.8°F11.0°C 74% 1.3 mph S2.1 kmh S 1.3 mph2.1 kmh 29.41 in995.9 mb 0.00 in0.0 mm 0.00 in0.0 mm 0.00 in0.0 mm
10:45 AM 60.8°F16.0°C 51.8°F11.0°C 73% 1.3 mph S2.1 kmh S 1.3 mph2.1 kmh 29.41 in995.9 mb 0.00 in0.0 mm 0.00 in0.0 mm 0.00 in0.0 mm
10:50 AM 58.3°F14.6°C 50.0°F10.0°C 73% 1.3 mph S2.1 kmh S 1.3 mph2.1 kmh 29.41 in995.9 mb 0.00 in0.0 mm 0.00 in0.0 mm 0.00 in0.0 mm
10:55 AM 58.5°F14.7°C 50.0°F10.0°C 73% 1.3 mph S2.1 kmh S 1.3 mph2.1 kmh 29.41 in995.9 mb 0.00 in0.0 mm 0.00 in0.0 mm 0.00 in0.0 mm
11:00 AM 58.8°F14.9°C 50.0°F10.0°C 73% 4.3 mph SSW6.9 kmh SSW 7.2 mph11.6 kmh 29.41 in995.9 mb 0.00 in0.0 mm 0.00 in0.0 mm 0.00 in0.0 mm
11:05 AM 59.7°F15.4°C 51.8°F11.0°C 73% 7.2 mph SSW11.6 kmh SSW 7.2 mph11.6 kmh 29.41 in995.9 mb 0.00 in0.0 mm 0.00 in0.0 mm 0.00 in0.0 mm
11:10 AM 60.8°F16.0°C 51.8°F11.0°C 72% 6.8 mph SSW10.9 kmh SSW 7.2 mph11.6 kmh 29.41 in995.9 mb 0.00 in0.0 mm 0.00 in0.0 mm 0.00 in0.0 mm
11:15 AM 61.3°F16.3°C 51.8°F11.0°C 70% 6.5 mph S10.5 kmh S 7.2 mph11.6 kmh 29.41 in995.9 mb 0.00 in0.0 mm 0.00 in0.0 mm 0.00 in0.0 mm
11:20 AM 61.3°F16.3°C 51.8°F11.0°C 70% 6.3 mph S10.1 kmh S 6.3 mph10.1 kmh 29.41 in995.9 mb 0.00 in0.0 mm 0.00 in0.0 mm 0.00 in0.0 mm
11:25 AM 59.2°F15.1°C 50.0°F10.0°C 70% 6.3 mph S10.1 kmh S 6.3 mph10.1 kmh 29.41 in995.9 mb 0.00 in0.0 mm 0.00 in0.0 mm 0.00 in0.0 mm
11:30 AM 57.4°F14.1°C 48.2°F9.0°C 71% 6.7 mph W10.8 kmh W 7.2 mph11.6 kmh 29.41 in995.9 mb 0.00 in0.0 mm 0.00 in0.0 mm 0.00 in0.0 mm
11:35 AM 55.0°F12.8°C 48.2°F9.0°C 72% 7.2 mph NNW11.6 kmh NNW 7.2 mph11.6 kmh 29.41 in995.9 mb 0.00 in0.0 mm 0.00 in0.0 mm 0.00 in0.0 mm
11:40 AM 54.3°F12.4°C 46.4°F8.0°C 73% 7.2 mph NNW11.6 kmh NNW 7.2 mph11.6 kmh 29.41 in995.9 mb 0.00 in0.0 mm 0.00 in0.0 mm 0.00 in0.0 mm
11:45 AM 54.7°F12.6°C 46.4°F8.0°C 73% 7.2 mph NNW11.6 kmh NNW 7.2 mph11.6 kmh 29.41 in995.9 mb 0.00 in0.0 mm 0.00 in0.0 mm 0.00 in0.0 mm
11:50 AM 55.0°F12.8°C 48.2°F9.0°C 74% 5.3 mph NNW8.5 kmh NNW 7.2 mph11.6 kmh 29.41 in995.9 mb 0.00 in0.0 mm 0.00 in0.0 mm 0.00 in0.0 mm
11:55 AM 56.3°F13.5°C 48.2°F9.0°C 74% 2.8 mph S4.5 kmh S 3.4 mph5.5 kmh 29.41 in995.9 mb 0.00 in0.0 mm 0.00 in0.0 mm 0.00 in0.0 mm
12:00 PM 57.7°F14.3°C 50.0°F10.0°C 74% 3.1 mph S5.0 kmh S 5.8 mph9.3 kmh 29.41 in995.9 mb 0.00 in0.0 mm 0.00 in0.0 mm 0.00 in0.0 mm
12:05 PM 58.3°F14.6°C 50.0°F10.0°C 73% 5.2 mph SW8.4 kmh SW 7.6 mph12.2 kmh 29.41 in995.9 mb 0.00 in0.0 mm 0.00 in0.0 mm 0.00 in0.0 mm
12:10 PM 59.0°F15.0°C 50.0°F10.0°C 73% 6.9 mph SW11.1 kmh SW 10.7 mph17.2 kmh 29.41 in995.9 mb 0.00 in0.0 mm 0.00 in0.0 mm 0.00 in0.0 mm
12:15 PM 60.1°F15.6°C 51.8°F11.0°C 71% 6.4 mph SSW10.3 kmh SSW 10.7 mph17.2 kmh 29.41 in995.9 mb 0.00 in0.0 mm 0.00 in0.0 mm 0.00 in0.0 mm
12:20 PM 59.5°F15.3°C 50.0°F10.0°C 71% 4.8 mph SW7.7 kmh SW 6.3 mph10.1 kmh 29.41 in995.9 mb 0.00 in0.0 mm 0.00 in0.0 mm 0.00 in0.0 mm
12:25 PM 61.0°F16.1°C 51.8°F11.0°C 71% 4.8 mph SW7.7 kmh SW 8.7 mph14.0 kmh 29.41 in995.9 mb 0.00 in0.0 mm 0.00 in0.0 mm 0.00 in0.0 mm
12:30 PM 60.1°F15.6°C 50.0°F10.0°C 69% 7.0 mph SW11.3 kmh SW 10.3 mph16.6 kmh 29.41 in995.9 mb 0.00 in0.0 mm 0.00 in0.0 mm 0.00 in0.0 mm
12:35 PM 59.2°F15.1°C 48.2°F9.0°C 68% 9.5 mph SW15.3 kmh SW 10.3 mph16.6 kmh 29.41 in995.9 mb 0.00 in0.0 mm 0.00 in0.0 mm 0.00 in0.0 mm
12:40 PM 57.7°F14.3°C 48.2°F9.0°C 69% 7.8 mph W12.6 kmh W 10.3 mph16.6 kmh 29.41 in995.9 mb 0.00 in0.0 mm 0.00 in0.0 mm 0.00 in0.0 mm
12:45 PM 56.8°F13.8°C 48.2°F9.0°C 71% 4.9 mph WSW7.9 kmh WSW 8.7 mph14.0 kmh 29.41 in995.9 mb 0.00 in0.0 mm 0.00 in0.0 mm 0.00 in0.0 mm
12:50 PM 56.3°F13.5°C 48.2°F9.0°C 71% 4.0 mph SSW6.4 kmh SSW 7.2 mph11.6 kmh 29.41 in995.9 mb 0.00 in0.0 mm 0.00 in0.0 mm 0.00 in0.0 mm
12:55 PM 56.1°F13.4°C 48.2°F9.0°C 72% 3.9 mph SW6.3 kmh SW 5.6 mph9.0 kmh 29.41 in995.9 mb 0.00 in0.0 mm 0.00 in0.0 mm 0.00 in0.0 mm
01:00 PM 55.8°F13.2°C 48.2°F9.0°C 72% 4.1 mph WSW6.6 kmh WSW 5.8 mph9.3 kmh 29.41 in995.9 mb 0.00 in0.0 mm 0.00 in0.0 mm 0.00 in0.0 mm
01:05 PM 55.4°F13.0°C 48.2°F9.0°C 73% 4.4 mph SW7.1 kmh SW 5.8 mph9.3 kmh 29.41 in995.9 mb 0.00 in0.0 mm 0.00 in0.0 mm 0.00 in0.0 mm
01:10 PM 55.8°F13.2°C 48.2°F9.0°C 73% 4.1 mph WSW6.6 kmh WSW 5.8 mph9.3 kmh 29.41 in995.9 mb 0.00 in0.0 mm 0.00 in0.0 mm 0.00 in0.0 mm
01:15 PM 55.4°F13.0°C 48.2°F9.0°C 73% 5.8 mph W9.3 kmh W 12.1 mph19.5 kmh 29.41 in995.9 mb 0.00 in0.0 mm 0.00 in0.0 mm 0.00 in0.0 mm
01:20 PM 55.4°F13.0°C 48.2°F9.0°C 73% 5.9 mph WSW9.5 kmh WSW 12.1 mph19.5 kmh 29.41 in995.9 mb 0.00 in0.0 mm 0.00 in0.0 mm 0.00 in0.0 mm
01:25 PM 55.0°F12.8°C 48.2°F9.0°C 73% 5.8 mph WSW9.3 kmh WSW 12.1 mph19.5 kmh 29.41 in995.9 mb 0.00 in0.0 mm 0.00 in0.0 mm 0.00 in0.0 mm
01:30 PM 55.2°F12.9°C 48.2°F9.0°C 72% 6.4 mph WSW10.3 kmh WSW 12.1 mph19.5 kmh 29.41 in995.9 mb 0.00 in0.0 mm 0.00 in0.0 mm 0.00 in0.0 mm
01:35 PM 55.8°F13.2°C 48.2°F9.0°C 72% 5.6 mph SW9.0 kmh SW 12.1 mph19.5 kmh 29.41 in995.9 mb 0.00 in0.0 mm 0.00 in0.0 mm 0.00 in0.0 mm
01:40 PM 55.9°F13.3°C 48.2°F9.0°C 72% 6.0 mph WSW9.7 kmh WSW 11.0 mph17.7 kmh 29.41 in995.9 mb 0.00 in0.0 mm 0.00 in0.0 mm 0.00 in0.0 mm
01:45 PM 55.9°F13.3°C 48.2°F9.0°C 71% 8.0 mph WSW12.9 kmh WSW 11.0 mph17.7 kmh 29.41 in995.9 mb 0.00 in0.0 mm 0.00 in0.0 mm 0.00 in0.0 mm
01:50 PM 55.6°F13.1°C 46.4°F8.0°C 71% 7.3 mph SW11.7 kmh SW 10.7 mph17.2 kmh 29.41 in995.9 mb 0.00 in0.0 mm 0.00 in0.0 mm 0.00 in0.0 mm
01:55 PM 55.8°F13.2°C 46.4°F8.0°C 70% 7.0 mph SW11.3 kmh SW 10.1 mph16.3 kmh 29.41 in995.9 mb 0.00 in0.0 mm 0.00 in0.0 mm 0.00 in0.0 mm
02:00 PM 55.8°F13.2°C 46.4°F8.0°C 70% 6.8 mph WSW10.9 kmh WSW 8.7 mph14.0 kmh 29.41 in995.9 mb 0.00 in0.0 mm 0.00 in0.0 mm 0.00 in0.0 mm
02:05 PM 55.6°F13.1°C 46.4°F8.0°C 70% 5.2 mph WSW8.4 kmh WSW 5.6 mph9.0 kmh 29.41 in995.9 mb 0.00 in0.0 mm 0.00 in0.0 mm 0.00 in0.0 mm
02:10 PM 55.9°F13.3°C 46.4°F8.0°C 70% 4.5 mph WSW7.2 kmh WSW 5.6 mph9.0 kmh 29.41 in995.9 mb 0.00 in0.0 mm 0.00 in0.0 mm 0.00 in0.0 mm
02:15 PM 56.7°F13.7°C 46.4°F8.0°C 69% 5.6 mph WSW9.0 kmh WSW 8.7 mph14.0 kmh 29.41 in995.9 mb 0.00 in0.0 mm 0.00 in0.0 mm 0.00 in0.0 mm
02:20 PM 56.7°F13.7°C 46.4°F8.0°C 69% 6.6 mph WSW10.6 kmh WSW 9.2 mph14.8 kmh 29.41 in995.9 mb 0.00 in0.0 mm 0.00 in0.0 mm 0.00 in0.0 mm
02:25 PM 56.5°F13.6°C 46.4°F8.0°C 69% 6.4 mph WSW10.3 kmh WSW 9.2 mph14.8 kmh 29.41 in995.9 mb 0.00 in0.0 mm 0.00 in0.0 mm 0.00 in0.0 mm
02:30 PM 57.0°F13.9°C 48.2°F9.0°C 68% 8.1 mph WSW13.0 kmh WSW 11.0 mph17.7 kmh 29.41 in995.9 mb 0.00 in0.0 mm 0.00 in0.0 mm 0.00 in0.0 mm
02:35 PM 56.3°F13.5°C 46.4°F8.0°C 67% 9.1 mph WSW14.6 kmh WSW 12.5 mph20.1 kmh 29.41 in995.9 mb 0.00 in0.0 mm 0.00 in0.0 mm 0.00 in0.0 mm
02:40 PM 56.7°F13.7°C 46.4°F8.0°C 67% 7.9 mph WSW12.7 kmh WSW 12.5 mph20.1 kmh 29.41 in995.9 mb 0.00 in0.0 mm 0.00 in0.0 mm 0.00 in0.0 mm
02:45 PM 57.2°F14.0°C 46.4°F8.0°C 67% 7.3 mph WNW11.7 kmh WNW 12.3 mph19.8 kmh 29.41 in995.9 mb 0.00 in0.0 mm 0.00 in0.0 mm 0.00 in0.0 mm
02:50 PM 57.4°F14.1°C 46.4°F8.0°C 67% 7.9 mph W12.7 kmh W 12.3 mph19.8 kmh 29.41 in995.9 mb 0.00 in0.0 mm 0.00 in0.0 mm 0.00 in0.0 mm
02:55 PM 56.8°F13.8°C 46.4°F8.0°C 67% 6.3 mph SW10.1 kmh SW 10.5 mph16.9 kmh 29.41 in995.9 mb 0.00 in0.0 mm 0.00 in0.0 mm 0.00 in0.0 mm
03:00 PM 56.3°F13.5°C 46.4°F8.0°C 67% 5.3 mph SW8.5 kmh SW 6.3 mph10.1 kmh 29.41 in995.9 mb 0.00 in0.0 mm 0.00 in0.0 mm 0.00 in0.0 mm
03:05 PM 56.1°F13.4°C 46.4°F8.0°C 67% 6.3 mph WSW10.1 kmh WSW 6.3 mph10.1 kmh 29.41 in995.9 mb 0.00 in0.0 mm 0.00 in0.0 mm 0.00 in0.0 mm
03:10 PM 55.8°F13.2°C 44.6°F7.0°C 66% 6.3 mph WSW10.1 kmh WSW 6.3 mph10.1 kmh 29.41 in995.9 mb 0.00 in0.0 mm 0.00 in0.0 mm 0.00 in0.0 mm
03:15 PM 56.1°F13.4°C 44.6°F7.0°C 66% 6.3 mph WSW10.1 kmh WSW 6.3 mph10.1 kmh 29.41 in995.9 mb 0.00 in0.0 mm 0.00 in0.0 mm 0.00 in0.0 mm
03:20 PM 56.5°F13.6°C 46.4°F8.0°C 66% 6.3 mph WSW10.1 kmh WSW 6.3 mph10.1 kmh 29.41 in995.9 mb 0.00 in0.0 mm 0.00 in0.0 mm 0.00 in0.0 mm
03:25 PM 56.3°F13.5°C 46.4°F8.0°C 66% 6.3 mph WSW10.1 kmh WSW 6.3 mph10.1 kmh 29.45 in997.3 mb 0.00 in0.0 mm 0.00 in0.0 mm 0.00 in0.0 mm
03:30 PM 56.1°F13.4°C 44.6°F7.0°C 66% 6.3 mph WSW10.1 kmh WSW 6.3 mph10.1 kmh 29.45 in997.3 mb 0.00 in0.0 mm 0.00 in0.0 mm 0.00 in0.0 mm
03:35 PM 55.9°F13.3°C 44.6°F7.0°C 66% 6.3 mph WSW10.1 kmh WSW 6.3 mph10.1 kmh 29.45 in997.3 mb 0.00 in0.0 mm 0.00 in0.0 mm 0.00 in0.0 mm
03:40 PM 55.6°F13.1°C 44.6°F7.0°C 65% 6.3 mph WSW10.1 kmh WSW 6.3 mph10.1 kmh 29.45 in997.3 mb 0.00 in0.0 mm 0.00 in0.0 mm 0.00 in0.0 mm
03:45 PM 55.0°F12.8°C 44.6°F7.0°C 65% 6.3 mph WSW10.1 kmh WSW 6.3 mph10.1 kmh 29.45 in997.3 mb 0.00 in0.0 mm 0.00 in0.0 mm 0.00 in0.0 mm
03:50 PM 54.7°F12.6°C 44.6°F7.0°C 65% 6.3 mph WSW10.1 kmh WSW 6.3 mph10.1 kmh 29.45 in997.3 mb 0.00 in0.0 mm 0.00 in0.0 mm 0.00 in0.0 mm
03:55 PM 54.3°F12.4°C 42.8°F6.0°C 65% 6.3 mph WSW10.1 kmh WSW 6.3 mph10.1 kmh 29.45 in997.3 mb 0.00 in0.0 mm 0.00 in0.0 mm 0.00 in0.0 mm
04:00 PM 54.3°F12.4°C 42.8°F6.0°C 65% 6.3 mph WSW10.1 kmh WSW 6.3 mph10.1 kmh 29.45 in997.3 mb 0.00 in0.0 mm 0.00 in0.0 mm 0.00 in0.0 mm
04:05 PM 54.3°F12.4°C 42.8°F6.0°C 66% 4.9 mph WSW7.9 kmh WSW 10.1 mph16.3 kmh 29.45 in997.3 mb 0.00 in0.0 mm 0.00 in0.0 mm 0.00 in0.0 mm
04:10 PM 54.0°F12.2°C 42.8°F6.0°C 66% 5.2 mph WSW8.4 kmh WSW 10.1 mph16.3 kmh 29.45 in997.3 mb 0.00 in0.0 mm 0.00 in0.0 mm 0.00 in0.0 mm
04:15 PM 54.0°F12.2°C 42.8°F6.0°C 66% 5.5 mph WSW8.9 kmh WSW 7.2 mph11.6 kmh 29.45 in997.3 mb 0.00 in0.0 mm 0.00 in0.0 mm 0.00 in0.0 mm
04:20 PM 54.3°F12.4°C 42.8°F6.0°C 66% 6.3 mph WSW10.1 kmh WSW 7.2 mph11.6 kmh 29.45 in997.3 mb 0.00 in0.0 mm 0.00 in0.0 mm 0.00 in0.0 mm
04:25 PM 54.1°F12.3°C 42.8°F6.0°C 66% 4.5 mph WSW7.2 kmh WSW 7.2 mph11.6 kmh 29.45 in997.3 mb 0.00 in0.0 mm 0.00 in0.0 mm 0.00 in0.0 mm
04:30 PM 54.0°F12.2°C 42.8°F6.0°C 67% 2.9 mph WSW4.7 kmh WSW 3.4 mph5.5 kmh 29.45 in997.3 mb 0.00 in0.0 mm 0.00 in0.0 mm 0.00 in0.0 mm
04:35 PM 53.8°F12.1°C 42.8°F6.0°C 67% 2.7 mph W4.3 kmh W 2.7 mph4.3 kmh 29.45 in997.3 mb 0.00 in0.0 mm 0.00 in0.0 mm 0.00 in0.0 mm
04:40 PM 53.4°F11.9°C 42.8°F6.0°C 67% 2.7 mph W4.3 kmh W 2.9 mph4.7 kmh 29.45 in997.3 mb 0.00 in0.0 mm 0.00 in0.0 mm 0.00 in0.0 mm
04:45 PM 53.1°F11.7°C 42.8°F6.0°C 67% 6.7 mph WSW10.8 kmh WSW 12.8 mph20.6 kmh 29.45 in997.3 mb 0.00 in0.0 mm 0.00 in0.0 mm 0.00 in0.0 mm
04:50 PM 52.7°F11.5°C 42.8°F6.0°C 67% 9.2 mph W14.8 kmh W 12.8 mph20.6 kmh 29.45 in997.3 mb 0.00 in0.0 mm 0.00 in0.0 mm 0.00 in0.0 mm
04:55 PM 52.5°F11.4°C 42.8°F6.0°C 68% 7.5 mph WNW12.1 kmh WNW 8.1 mph13.0 kmh 29.45 in997.3 mb 0.00 in0.0 mm 0.00 in0.0 mm 0.00 in0.0 mm
05:00 PM 52.2°F11.2°C 42.8°F6.0°C 68% 6.0 mph WNW9.7 kmh WNW 8.1 mph13.0 kmh 29.45 in997.3 mb 0.00 in0.0 mm 0.00 in0.0 mm 0.00 in0.0 mm
05:05 PM 52.2°F11.2°C 42.8°F6.0°C 68% 6.0 mph W9.7 kmh W 7.2 mph11.6 kmh 29.45 in997.3 mb 0.00 in0.0 mm 0.00 in0.0 mm 0.00 in0.0 mm
05:10 PM 52.0°F11.1°C 42.8°F6.0°C 68% 7.0 mph SW11.3 kmh SW 7.2 mph11.6 kmh 29.45 in997.3 mb 0.00 in0.0 mm 0.00 in0.0 mm 0.00 in0.0 mm
05:15 PM 51.4°F10.8°C 41.0°F5.0°C 69% 5.3 mph W8.5 kmh W 7.2 mph11.6 kmh 29.45 in997.3 mb 0.00 in0.0 mm 0.00 in0.0 mm 0.00 in0.0 mm
05:20 PM 51.3°F10.7°C 41.0°F5.0°C 69% 4.5 mph WNW7.2 kmh WNW 7.2 mph11.6 kmh 29.45 in997.3 mb 0.00 in0.0 mm 0.00 in0.0 mm 0.00 in0.0 mm
05:25 PM 51.1°F10.6°C 41.0°F5.0°C 69% 4.2 mph WNW6.8 kmh WNW 5.4 mph8.7 kmh 29.45 in997.3 mb 0.00 in0.0 mm 0.00 in0.0 mm 0.00 in0.0 mm
05:30 PM 51.1°F10.6°C 41.0°F5.0°C 69% 4.8 mph W7.7 kmh W 5.8 mph9.3 kmh 29.45 in997.3 mb 0.00 in0.0 mm 0.00 in0.0 mm 0.00 in0.0 mm
05:35 PM 50.7°F10.4°C 41.0°F5.0°C 70% 5.0 mph WSW8.0 kmh WSW 5.8 mph9.3 kmh 29.45 in997.3 mb 0.00 in0.0 mm 0.00 in0.0 mm 0.00 in0.0 mm
05:40 PM 50.5°F10.3°C 41.0°F5.0°C 70% 4.3 mph WSW6.9 kmh WSW 5.8 mph9.3 kmh 29.45 in997.3 mb 0.00 in0.0 mm 0.00 in0.0 mm 0.00 in0.0 mm
05:45 PM 50.4°F10.2°C 42.8°F6.0°C 71% 3.0 mph SW4.8 kmh SW 5.4 mph8.7 kmh 29.45 in997.3 mb 0.00 in0.0 mm 0.00 in0.0 mm 0.00 in0.0 mm
05:50 PM 50.2°F10.1°C 41.0°F5.0°C 71% 1.7 mph SW2.7 kmh SW 5.4 mph8.7 kmh 29.45 in997.3 mb 0.00 in0.0 mm 0.00 in0.0 mm 0.00 in0.0 mm
05:55 PM 50.0°F10.0°C 42.8°F6.0°C 72% Calm Calm -- 29.45 in997.3 mb 0.00 in0.0 mm 0.00 in0.0 mm 0.00 in0.0 mm
06:00 PM 49.6°F9.8°C 41.0°F5.0°C 72% Calm Calm -- 29.45 in997.3 mb 0.00 in0.0 mm 0.00 in0.0 mm 0.00 in0.0 mm
06:05 PM 49.6°F9.8°C 41.0°F5.0°C 73% Calm Calm -- 29.45 in997.3 mb 0.00 in0.0 mm 0.00 in0.0 mm 0.00 in0.0 mm
06:10 PM 49.5°F9.7°C 41.0°F5.0°C 73% Calm Calm -- 29.45 in997.3 mb 0.00 in0.0 mm 0.00 in0.0 mm 0.00 in0.0 mm
06:15 PM 49.3°F9.6°C 41.0°F5.0°C 73% Calm Calm -- 29.45 in997.3 mb 0.00 in0.0 mm 0.00 in0.0 mm 0.00 in0.0 mm
06:20 PM 49.1°F9.5°C 41.0°F5.0°C 73% Calm Calm -- 29.45 in997.3 mb 0.00 in0.0 mm 0.00 in0.0 mm 0.00 in0.0 mm
06:25 PM 49.1°F9.5°C 42.8°F6.0°C 74% Calm Calm -- 29.45 in997.3 mb 0.00 in0.0 mm 0.00 in0.0 mm 0.00 in0.0 mm
06:30 PM 48.7°F9.3°C 41.0°F5.0°C 74% Calm Calm -- 29.45 in997.3 mb 0.00 in0.0 mm 0.00 in0.0 mm 0.00 in0.0 mm
06:35 PM 48.6°F9.2°C 41.0°F5.0°C 74% Calm Calm -- 29.45 in997.3 mb 0.00 in0.0 mm 0.00 in0.0 mm 0.00 in0.0 mm
06:40 PM 48.4°F9.1°C 41.0°F5.0°C 74% Calm Calm -- 29.47 in998.0 mb 0.00 in0.0 mm 0.00 in0.0 mm 0.00 in0.0 mm
06:45 PM 48.4°F9.1°C 41.0°F5.0°C 75% Calm Calm -- 29.47 in998.0 mb 0.00 in0.0 mm 0.00 in0.0 mm 0.00 in0.0 mm
06:50 PM 48.2°F9.0°C 41.0°F5.0°C 75% Calm Calm -- 29.47 in998.0 mb 0.00 in0.0 mm 0.00 in0.0 mm 0.00 in0.0 mm
06:55 PM 48.2°F9.0°C 41.0°F5.0°C 75% Calm Calm -- 29.47 in998.0 mb 0.00 in0.0 mm 0.00 in0.0 mm 0.00 in0.0 mm
07:00 PM 48.2°F9.0°C 41.0°F5.0°C 75% Calm Calm -- 29.47 in998.0 mb 0.00 in0.0 mm 0.00 in0.0 mm 0.00 in0.0 mm
07:05 PM 48.4°F9.1°C 41.0°F5.0°C 75% Calm Calm -- 29.47 in998.0 mb 0.00 in0.0 mm 0.00 in0.0 mm 0.00 in0.0 mm
07:10 PM 48.2°F9.0°C 41.0°F5.0°C 75% Calm Calm -- 29.47 in998.0 mb 0.00 in0.0 mm 0.00 in0.0 mm 0.00 in0.0 mm
07:15 PM 48.0°F8.9°C 41.0°F5.0°C 75% Calm Calm -- 29.47 in998.0 mb 0.00 in0.0 mm 0.00 in0.0 mm 0.00 in0.0 mm
07:20 PM 47.5°F8.6°C 41.0°F5.0°C 75% Calm Calm -- 29.47 in998.0 mb 0.00 in0.0 mm 0.00 in0.0 mm 0.00 in0.0 mm
07:25 PM 47.3°F8.5°C 41.0°F5.0°C 76% Calm Calm -- 29.47 in998.0 mb 0.00 in0.0 mm 0.00 in0.0 mm 0.00 in0.0 mm
07:30 PM 47.1°F8.4°C 41.0°F5.0°C 76% Calm Calm -- 29.47 in998.0 mb 0.00 in0.0 mm 0.00 in0.0 mm 0.00 in0.0 mm
07:35 PM 46.9°F8.3°C 41.0°F5.0°C 76% Calm Calm -- 29.47 in998.0 mb 0.00 in0.0 mm 0.00 in0.0 mm 0.00 in0.0 mm
07:40 PM 47.3°F8.5°C 41.0°F5.0°C 76% Calm Calm -- 29.47 in998.0 mb 0.00 in0.0 mm 0.00 in0.0 mm 0.00 in0.0 mm
07:45 PM 47.3°F8.5°C 41.0°F5.0°C 76% Calm Calm -- 29.47 in998.0 mb 0.00 in0.0 mm 0.00 in0.0 mm 0.00 in0.0 mm
07:50 PM 47.3°F8.5°C 41.0°F5.0°C 77% Calm Calm -- 29.47 in998.0 mb 0.00 in0.0 mm 0.00 in0.0 mm 0.00 in0.0 mm
07:55 PM 47.3°F8.5°C 41.0°F5.0°C 77% 2.2 mph SSW3.5 kmh SSW 2.2 mph3.5 kmh 29.47 in998.0 mb 0.00 in0.0 mm 0.00 in0.0 mm 0.00 in0.0 mm
08:00 PM 47.3°F8.5°C 41.0°F5.0°C 77% 2.2 mph SSW3.5 kmh SSW 2.2 mph3.5 kmh 29.47 in998.0 mb 0.00 in0.0 mm 0.00 in0.0 mm 0.00 in0.0 mm
08:05 PM 47.3°F8.5°C 41.0°F5.0°C 77% 2.2 mph SSW3.5 kmh SSW 2.2 mph3.5 kmh 29.47 in998.0 mb 0.00 in0.0 mm 0.00 in0.0 mm 0.00 in0.0 mm
08:10 PM 47.1°F8.4°C 41.0°F5.0°C 77% 2.2 mph SSW3.5 kmh SSW 2.2 mph3.5 kmh 29.47 in998.0 mb 0.00 in0.0 mm 0.00 in0.0 mm 0.00 in0.0 mm
08:15 PM 47.1°F8.4°C 41.0°F5.0°C 77% 2.2 mph SSW3.5 kmh SSW 2.2 mph3.5 kmh 29.47 in998.0 mb 0.00 in0.0 mm 0.00 in0.0 mm 0.00 in0.0 mm
08:20 PM 47.3°F8.5°C 41.0°F5.0°C 77% 2.2 mph SSW3.5 kmh SSW 2.2 mph3.5 kmh 29.47 in998.0 mb 0.00 in0.0 mm 0.00 in0.0 mm 0.00 in0.0 mm
08:25 PM 47.1°F8.4°C 41.0°F5.0°C 77% 2.2 mph SSW3.5 kmh SSW 2.2 mph3.5 kmh 29.47 in998.0 mb 0.00 in0.0 mm 0.00 in0.0 mm 0.00 in0.0 mm
08:30 PM 47.1°F8.4°C 41.0°F5.0°C 77% 2.2 mph SSW3.5 kmh SSW 2.2 mph3.5 kmh 29.47 in998.0 mb 0.00 in0.0 mm 0.00 in0.0 mm 0.00 in0.0 mm
08:35 PM 47.1°F8.4°C 41.0°F5.0°C 77% 2.2 mph SSW3.5 kmh SSW 2.2 mph3.5 kmh 29.47 in998.0 mb 0.00 in0.0 mm 0.00 in0.0 mm 0.00 in0.0 mm
08:40 PM 47.1°F8.4°C 41.0°F5.0°C 77% 2.2 mph SSW3.5 kmh SSW 2.2 mph3.5 kmh 29.47 in998.0 mb 0.00 in0.0 mm 0.00 in0.0 mm 0.00 in0.0 mm
08:45 PM 47.1°F8.4°C 41.0°F5.0°C 77% 2.2 mph SSW3.5 kmh SSW 2.2 mph3.5 kmh 29.47 in998.0 mb 0.00 in0.0 mm 0.00 in0.0 mm 0.00 in0.0 mm
08:50 PM 47.1°F8.4°C 41.0°F5.0°C 77% 2.2 mph SSW3.5 kmh SSW 2.2 mph3.5 kmh 29.47 in998.0 mb 0.00 in0.0 mm 0.00 in0.0 mm 0.00 in0.0 mm
08:55 PM 46.9°F8.3°C 41.0°F5.0°C 77% 2.2 mph SSW3.5 kmh SSW 2.2 mph3.5 kmh 29.47 in998.0 mb 0.00 in0.0 mm 0.00 in0.0 mm 0.00 in0.0 mm
09:00 PM 46.9°F8.3°C 41.0°F5.0°C 77% 2.2 mph SSW3.5 kmh SSW 2.2 mph3.5 kmh 29.47 in998.0 mb 0.00 in0.0 mm 0.00 in0.0 mm 0.00 in0.0 mm
09:05 PM 46.9°F8.3°C 41.0°F5.0°C 77% 2.2 mph SSW3.5 kmh SSW 2.2 mph3.5 kmh 29.47 in998.0 mb 0.00 in0.0 mm 0.00 in0.0 mm 0.00 in0.0 mm
09:10 PM 46.8°F8.2°C 41.0°F5.0°C 78% 2.2 mph SSW3.5 kmh SSW 2.2 mph3.5 kmh 29.47 in998.0 mb 0.00 in0.0 mm 0.00 in0.0 mm 0.00 in0.0 mm
09:15 PM 46.8°F8.2°C 41.0°F5.0°C 78% 2.2 mph SSW3.5 kmh SSW 2.2 mph3.5 kmh 29.47 in998.0 mb 0.00 in0.0 mm 0.00 in0.0 mm 0.00 in0.0 mm
09:20 PM 46.8°F8.2°C 41.0°F5.0°C 78% 2.2 mph SSW3.5 kmh SSW 2.2 mph3.5 kmh 29.47 in998.0 mb 0.00 in0.0 mm 0.00 in0.0 mm 0.00 in0.0 mm
09:25 PM 46.8°F8.2°C 41.0°F5.0°C 78% 2.2 mph SSW3.5 kmh SSW 2.2 mph3.5 kmh 29.47 in998.0 mb 0.00 in0.0 mm 0.00 in0.0 mm 0.00 in0.0 mm
09:30 PM 46.8°F8.2°C 41.0°F5.0°C 78% 3.0 mph SW4.8 kmh SW 4.0 mph6.4 kmh 29.47 in998.0 mb 0.00 in0.0 mm 0.00 in0.0 mm 0.00 in0.0 mm
09:35 PM 46.8°F8.2°C 41.0°F5.0°C 78% 2.6 mph SW4.2 kmh SW 4.0 mph6.4 kmh 29.47 in998.0 mb 0.00 in0.0 mm 0.00 in0.0 mm 0.00 in0.0 mm
09:40 PM 46.6°F8.1°C 41.0°F5.0°C 78% 1.9 mph WSW3.1 kmh WSW 4.0 mph6.4 kmh 29.47 in998.0 mb 0.00 in0.0 mm 0.00 in0.0 mm 0.00 in0.0 mm
09:45 PM 46.6°F8.1°C 41.0°F5.0°C 78% 2.8 mph W4.5 kmh W 4.0 mph6.4 kmh 29.47 in998.0 mb 0.00 in0.0 mm 0.00 in0.0 mm 0.00 in0.0 mm
09:50 PM 46.4°F8.0°C 41.0°F5.0°C 78% 3.6 mph W5.8 kmh W 4.0 mph6.4 kmh 29.47 in998.0 mb 0.00 in0.0 mm 0.00 in0.0 mm 0.00 in0.0 mm
09:55 PM 46.2°F7.9°C 39.2°F4.0°C 78% 3.1 mph SW5.0 kmh SW 4.0 mph6.4 kmh 29.47 in998.0 mb 0.00 in0.0 mm 0.00 in0.0 mm 0.00 in0.0 mm
10:00 PM 46.2°F7.9°C 39.2°F4.0°C 78% 2.9 mph SSW4.7 kmh SSW 2.9 mph4.7 kmh 29.47 in998.0 mb 0.00 in0.0 mm 0.00 in0.0 mm 0.00 in0.0 mm
10:05 PM 46.2°F7.9°C 39.2°F4.0°C 78% 3.0 mph SW4.8 kmh SW 3.1 mph5.0 kmh 29.47 in998.0 mb 0.00 in0.0 mm 0.00 in0.0 mm 0.00 in0.0 mm
10:10 PM 45.9°F7.7°C 39.2°F4.0°C 78% 3.1 mph SW5.0 kmh SW 3.1 mph5.0 kmh 29.47 in998.0 mb 0.00 in0.0 mm 0.00 in0.0 mm 0.00 in0.0 mm
10:15 PM 45.7°F7.6°C 39.2°F4.0°C 78% 3.1 mph SW5.0 kmh SW 3.1 mph5.0 kmh 29.47 in998.0 mb 0.00 in0.0 mm 0.00 in0.0 mm 0.00 in0.0 mm
10:20 PM 45.7°F7.6°C 39.2°F4.0°C 78% 3.1 mph SW5.0 kmh SW 3.1 mph5.0 kmh 29.47 in998.0 mb 0.00 in0.0 mm 0.00 in0.0 mm 0.00 in0.0 mm
10:25 PM 45.9°F7.7°C 39.2°F4.0°C 78% 2.1 mph SSW3.4 kmh SSW 2.5 mph4.0 kmh 29.47 in998.0 mb 0.00 in0.0 mm 0.00 in0.0 mm 0.00 in0.0 mm
10:30 PM 45.7°F7.6°C 39.2°F4.0°C 78% 2.5 mph SSW4.0 kmh SSW 3.4 mph5.5 kmh 29.47 in998.0 mb 0.00 in0.0 mm 0.00 in0.0 mm 0.00 in0.0 mm
10:35 PM 45.7°F7.6°C 39.2°F4.0°C 78% 3.1 mph SSW5.0 kmh SSW 3.4 mph5.5 kmh 29.47 in998.0 mb 0.00 in0.0 mm 0.00 in0.0 mm 0.00 in0.0 mm
10:40 PM 45.5°F7.5°C 39.2°F4.0°C 78% 3.4 mph SSW5.5 kmh SSW 3.4 mph5.5 kmh 29.47 in998.0 mb 0.00 in0.0 mm 0.00 in0.0 mm 0.00 in0.0 mm
10:45 PM 45.5°F7.5°C 39.2°F4.0°C 78% 3.4 mph SSW5.5 kmh SSW 3.4 mph5.5 kmh 29.47 in998.0 mb 0.00 in0.0 mm 0.00 in0.0 mm 0.00 in0.0 mm
10:50 PM 45.3°F7.4°C 39.2°F4.0°C 78% 3.4 mph SSW5.5 kmh SSW 3.4 mph5.5 kmh 29.47 in998.0 mb 0.00 in0.0 mm 0.00 in0.0 mm 0.00 in0.0 mm
10:55 PM 45.3°F7.4°C 39.2°F4.0°C 79% 3.4 mph SSW5.5 kmh SSW 3.4 mph5.5 kmh 29.47 in998.0 mb 0.00 in0.0 mm 0.00 in0.0 mm 0.00 in0.0 mm
11:00 PM 45.1°F7.3°C 39.2°F4.0°C 79% 3.4 mph SSW5.5 kmh SSW 3.4 mph5.5 kmh 29.47 in998.0 mb 0.00 in0.0 mm 0.00 in0.0 mm 0.00 in0.0 mm
11:05 PM 45.0°F7.2°C 39.2°F4.0°C 79% 3.4 mph SSW5.5 kmh SSW 3.4 mph5.5 kmh 29.47 in998.0 mb 0.00 in0.0 mm 0.00 in0.0 mm 0.00 in0.0 mm
11:10 PM 45.0°F7.2°C 39.2°F4.0°C 79% 3.4 mph SSW5.5 kmh SSW 3.4 mph5.5 kmh 29.47 in998.0 mb 0.00 in0.0 mm 0.00 in0.0 mm 0.00 in0.0 mm
11:15 PM 45.0°F7.2°C 39.2°F4.0°C 79% 3.4 mph SSW5.5 kmh SSW 3.4 mph5.5 kmh 29.47 in998.0 mb 0.00 in0.0 mm 0.00 in0.0 mm 0.00 in0.0 mm
11:20 PM 45.0°F7.2°C 39.2°F4.0°C 79% 3.4 mph SSW5.5 kmh SSW 3.4 mph5.5 kmh 29.47 in998.0 mb 0.00 in0.0 mm 0.00 in0.0 mm 0.00 in0.0 mm
11:25 PM 45.1°F7.3°C 39.2°F4.0°C 79% 3.4 mph SSW5.5 kmh SSW 3.4 mph5.5 kmh 29.47 in998.0 mb 0.00 in0.0 mm 0.00 in0.0 mm 0.00 in0.0 mm
11:30 PM 45.1°F7.3°C 39.2°F4.0°C 79% 3.4 mph SSW5.5 kmh SSW 3.4 mph5.5 kmh 29.47 in998.0 mb 0.00 in0.0 mm 0.00 in0.0 mm 0.00 in0.0 mm
11:35 PM 45.1°F7.3°C 39.2°F4.0°C 79% 3.4 mph SSW5.5 kmh SSW 3.4 mph5.5 kmh 29.47 in998.0 mb 0.00 in0.0 mm 0.00 in0.0 mm 0.00 in0.0 mm
11:40 PM 45.0°F7.2°C 39.2°F4.0°C 79% 3.4 mph SSW5.5 kmh SSW 3.4 mph5.5 kmh 29.47 in998.0 mb 0.00 in0.0 mm 0.00 in0.0 mm 0.00 in0.0 mm
11:45 PM 44.8°F7.1°C 39.2°F4.0°C 80% 3.4 mph SSW5.5 kmh SSW 3.4 mph5.5 kmh 29.47 in998.0 mb 0.00 in0.0 mm 0.00 in0.0 mm 0.00 in0.0 mm
11:50 PM 44.6°F7.0°C 39.2°F4.0°C 80% 3.4 mph SSW5.5 kmh SSW 3.4 mph5.5 kmh 29.47 in998.0 mb 0.00 in0.0 mm 0.00 in0.0 mm 0.00 in0.0 mm
11:55 PM 44.6°F7.0°C 39.2°F4.0°C 80% 3.4 mph SSW5.5 kmh SSW 3.4 mph5.5 kmh 29.50 in999.0 mb 0.00 in0.0 mm 0.00 in0.0 mm 0.00 in0.0 mm